Time;durP1;ratioP1;P1;durP2;ratioP2;P2;SDS_P1;SDS_P2;PMS_P1;PMS_P2;Temp;Humidity;BMP_temperature;BMP_pressure;BME280_temperature;BME280_humidity;BME280_pressure;Samples;Min_cycle;Max_cycle;Signal;HPM_P1;HPM_P2
2021/12/11 00:00:26;;;;;;;26.20;12.98;;;;;;;-0.51;90.68;100456.56;4991273;28;20097;-73
2021/12/11 00:03:12;;;;;;;20.38;12.48;;;;;;;-0.54;90.63;100459.06;5046172;28;20421;-72
2021/12/11 00:05:41;;;;;;;24.17;13.27;;;;;;;-0.53;90.35;100465.97;5046445;28;20072;-72
2021/12/11 00:08:10;;;;;;;24.67;12.70;;;;;;;-0.59;90.16;100464.09;5026110;28;20029;-72
2021/12/11 00:10:44;;;;;;;22.45;12.80;;;;;;;-0.58;90.75;100473.53;5029049;28;20493;-72
2021/12/11 00:13:17;;;;;;;22.52;13.93;;;;;;;-0.59;90.99;100482.13;5029021;28;20044;-73
2021/12/11 00:15:45;;;;;;;24.42;14.38;;;;;;;-0.53;91.21;100491.72;5044593;28;20051;-73
2021/12/11 00:18:15;;;;;;;21.60;13.20;;;;;;;-0.57;91.34;100485.59;5025189;28;20025;-72
2021/12/11 00:20:48;;;;;;;28.60;14.93;;;;;;;-0.54;90.82;100489.97;5029538;28;20033;-73
2021/12/11 00:23:22;;;;;;;36.30;16.13;;;;;;;-0.54;91.24;100501.13;5029998;28;20473;-72
2021/12/11 00:25:47;;;;;;;33.08;16.25;;;;;;;-0.51;91.22;100507.19;5035770;28;20115;-73
2021/12/11 00:28:13;;;;;;;27.38;16.08;;;;;;;-0.50;91.33;100506.34;5009369;28;20160;-72
2021/12/11 00:30:43;;;;;;;34.53;16.80;;;;;;;-0.52;91.44;100506.31;4992417;28;20059;-73
2021/12/11 00:33:18;;;;;;;33.28;17.38;;;;;;;-0.50;91.73;100525.25;5030764;28;20026;-72
2021/12/11 00:35:45;;;;;;;29.23;18.10;;;;;;;-0.47;91.68;100527.06;5029197;28;20037;-72
2021/12/11 00:38:16;;;;;;;29.83;17.25;;;;;;;-0.47;91.53;100530.47;5013382;28;20555;-72
2021/12/11 00:40:43;;;;;;;;;;;;;;;-0.44;91.51;100540.00;5024011;28;20063;-72
2021/12/11 00:43:15;;;;;;;37.13;18.13;;;;;;;-0.47;91.44;100540.78;5029960;28;19912;-73
2021/12/11 00:45:42;;;;;;;35.08;16.40;;;;;;;-0.49;91.39;100550.16;5028803;28;20059;-76
2021/12/11 00:48:12;;;;;;;31.10;17.50;;;;;;;-0.48;91.77;100551.03;4992166;28;20084;-78
2021/12/11 00:50:52;;;;;;;30.17;16.85;;;;;;;-0.47;91.89;100558.81;5028005;28;20042;-78
2021/12/11 00:53:31;;;;;;;27.48;16.95;;;;;;;-0.48;91.58;100559.63;5030111;28;20478;-79
2021/12/11 00:56:00;;;;;;;27.25;17.40;;;;;;;-0.50;91.89;100574.16;5029586;28;20021;-78
2021/12/11 00:58:27;;;;;;;29.58;16.58;;;;;;;-0.50;91.63;100574.16;5028025;28;20029;-77
2021/12/11 01:00:58;;;;;;;26.73;18.17;;;;;;;-0.49;91.63;100575.03;5010003;28;20045;-78
2021/12/11 01:03:29;;;;;;;;;;;;;;;-0.47;91.21;100578.53;5011157;28;20123;-78
2021/12/11 01:05:57;;;;;;;32.92;18.60;;;;;;;-0.49;91.26;100587.91;5017548;28;19913;-77
2021/12/11 01:08:32;;;;;;;28.77;19.65;;;;;;;-0.50;91.88;100583.56;5008909;28;20560;-77
2021/12/11 01:11:12;;;;;;;31.23;19.92;;;;;;;-0.52;91.99;100593.81;5013972;28;20389;-77
2021/12/11 01:13:46;;;;;;;35.17;19.17;;;;;;;-0.53;91.49;100599.81;5023909;28;20075;-77
2021/12/11 01:16:14;;;;;;;33.65;18.95;;;;;;;-0.59;91.78;100604.75;5010763;28;20033;-76
2021/12/11 01:18:46;;;;;;;31.88;18.15;;;;;;;-0.60;91.65;100609.06;4994414;28;20038;-77
2021/12/11 01:24:14;;;;;;;29.88;18.60;;;;;;;-0.68;91.00;100625.09;5020226;28;20033;-76
2021/12/11 01:26:48;;;;;;;96.85;22.15;;;;;;;-0.78;90.97;100623.94;5029677;28;20359;-77
2021/12/11 01:29:17;;;;;;;491.50;66.20;;;;;;;-0.79;91.40;100627.31;5029163;28;20028;-77
2021/12/11 01:31:43;;;;;;;415.63;57.80;;;;;;;-0.83;91.44;100630.63;5017959;28;20374;-79
2021/12/11 01:34:10;;;;;;;130.80;23.30;;;;;;;-0.87;91.13;100650.25;5035232;28;20028;-77
2021/12/11 01:36:36;;;;;;;31.05;19.20;;;;;;;-0.88;91.01;100658.78;4978758;28;20029;-77
2021/12/11 01:39:12;;;;;;;201.70;28.85;;;;;;;-0.87;91.61;100665.69;4993507;28;20030;-73
2021/12/11 01:41:39;;;;;;;136.25;24.85;;;;;;;-0.89;91.48;100667.31;5010526;28;20033;-73
2021/12/11 01:44:13;;;;;;;81.60;21.83;;;;;;;-0.89;91.57;100672.47;4995961;28;20053;-73
2021/12/11 01:46:42;;;;;;;301.80;41.75;;;;;;;-0.89;91.84;100664.75;5024447;28;20031;-73
2021/12/11 01:49:20;;;;;;;407.08;42.90;;;;;;;-0.90;91.82;100675.88;5022290;28;20030;-73
2021/12/11 01:51:54;;;;;;;114.97;25.58;;;;;;;-0.96;91.77;100686.84;5009722;28;20033;-73
2021/12/11 06:39:03;;;;;;;59.70;29.88;;;;;;;0.50;96.60;101064.19;5017734;28;20075;-73
2021/12/11 06:41:34;;;;;;;69.30;31.33;;;;;;;0.54;96.65;101075.47;5016650;28;20044;-73
2021/12/11 06:43:59;;;;;;;60.10;32.05;;;;;;;0.54;96.25;101072.88;5015232;28;20045;-72
2021/12/11 06:46:25;;;;;;;63.67;31.77;;;;;;;0.56;96.47;101073.81;4999245;28;20037;-74
2021/12/11 06:48:51;;;;;;;63.70;31.67;;;;;;;0.58;96.51;101077.31;5005388;28;20107;-73
2021/12/11 06:51:16;;;;;;;55.67;31.05;;;;;;;0.58;96.33;101077.31;4993661;28;20030;-72
2021/12/11 06:54:09;;;;;;;78.22;31.17;;;;;;;0.60;96.21;101080.81;4999507;28;20402;-73
2021/12/11 06:56:36;;;;;;;60.08;30.58;;;;;;;0.61;96.15;101080.00;4996594;28;20041;-73
2021/12/11 06:59:03;;;;;;;50.45;28.52;;;;;;;0.64;96.26;101082.66;5014492;28;20056;-73
2021/12/11 07:01:29;;;;;;;58.70;30.67;;;;;;;0.67;96.34;101082.75;5016463;28;20037;-73
2021/12/11 07:03:57;;;;;;;50.13;30.52;;;;;;;0.73;96.42;101094.13;4999318;28;20034;-72
2021/12/11 07:06:23;;;;;;;58.42;32.15;;;;;;;0.76;96.68;101096.78;5013173;28;20435;-74
2021/12/11 07:08:50;;;;;;;48.40;27.02;;;;;;;0.80;96.27;101096.06;5048693;28;20037;-73
2021/12/11 07:11:16;;;;;;;48.83;28.58;;;;;;;0.83;96.34;101096.16;4975899;28;20037;-73
2021/12/11 07:13:41;;;;;;;54.92;28.63;;;;;;;0.87;96.34;101103.19;4995258;28;20497;-73
2021/12/11 07:16:07;;;;;;;53.92;31.55;;;;;;;0.91;96.68;101107.63;4995746;28;20030;-73
2021/12/11 07:18:34;;;;;;;50.25;29.98;;;;;;;0.95;96.64;101106.88;4995421;28;21120;-72
2021/12/11 07:21:00;;;;;;;52.90;30.30;;;;;;;1.00;96.80;101107.88;4979986;28;20060;-73
2021/12/11 07:23:27;;;;;;;59.70;31.00;;;;;;;1.06;96.61;101111.50;4996189;28;20565;-72
2021/12/11 07:25:58;;;;;;;54.95;32.50;;;;;;;1.11;96.73;101117.69;4998520;28;20030;-73
2021/12/11 07:28:25;;;;;;;53.97;30.90;;;;;;;1.16;96.75;101119.56;5015836;28;20084;-72
2021/12/11 07:30:52;;;;;;;46.45;29.27;;;;;;;1.22;96.53;101129.22;4997974;28;20025;-72
2021/12/11 07:33:18;;;;;;;53.08;28.20;;;;;;;1.25;96.40;101134.50;5015554;28;20029;-73
2021/12/11 07:35:46;;;;;;;61.97;32.88;;;;;;;1.30;96.89;101127.75;4980393;28;20513;-73
2021/12/11 07:38:13;;;;;;;57.85;33.88;;;;;;;1.35;96.31;101138.22;5054598;28;20059;-72
2021/12/11 07:40:46;;;;;;;59.22;32.28;;;;;;;1.42;96.52;101136.69;5055202;28;20111;-72
2021/12/11 07:43:13;;;;;;;53.33;32.08;;;;;;;1.45;96.69;101142.84;5072108;28;20555;-72
2021/12/11 07:45:39;;;;;;;65.88;36.17;;;;;;;1.48;96.64;101139.47;5054003;28;20119;-73
2021/12/11 07:48:06;;;;;;;52.08;30.75;;;;;;;1.52;96.70;101143.88;5038945;28;20044;-73
2021/12/11 07:50:32;;;;;;;57.90;34.22;;;;;;;1.57;96.72;101147.50;5054810;28;20549;-73
2021/12/11 07:52:58;;;;;;;53.10;30.38;;;;;;;1.63;96.66;101146.81;5038691;28;20029;-74
2021/12/11 07:55:24;;;;;;;49.78;31.95;;;;;;;1.68;96.61;101152.97;5054639;28;20503;-73
2021/12/11 07:57:50;;;;;;;52.03;29.60;;;;;;;1.75;96.67;101162.66;5022406;28;20074;-73
2021/12/11 08:00:23;;;;;;;49.42;30.13;;;;;;;1.81;96.62;101167.13;5053328;28;20032;-73
2021/12/11 08:02:48;;;;;;;48.03;30.73;;;;;;;1.86;96.62;101168.16;5073164;28;20354;-79
2021/12/11 08:05:15;;;;;;;54.00;30.38;;;;;;;1.89;96.07;101166.50;5054772;28;20019;-78
2021/12/11 08:07:41;;;;;;;44.42;29.80;;;;;;;1.93;96.49;101167.50;5037602;28;20028;-78
2021/12/11 08:10:12;;;;;;;44.83;29.00;;;;;;;1.99;96.14;101165.06;5033811;28;20100;-79
2021/12/11 08:12:38;;;;;;;47.15;29.92;;;;;;;2.02;96.27;101172.91;5053584;28;20028;-79
2021/12/11 08:15:05;;;;;;;41.33;26.67;;;;;;;2.05;96.23;101182.47;5036609;28;20036;-79
2021/12/11 08:17:30;;;;;;;36.30;22.75;;;;;;;2.13;96.31;101181.00;5037636;28;20028;-78
2021/12/11 08:19:56;;;;;;;33.88;22.10;;;;;;;2.18;95.71;101179.38;5037628;28;20024;-79
2021/12/11 08:22:21;;;;;;;29.30;20.13;;;;;;;2.27;95.92;101189.16;5070194;28;20115;-79
2021/12/11 08:24:47;;;;;;;27.17;18.92;;;;;;;2.33;95.83;101198.75;5054785;28;20093;-79
2021/12/11 08:27:18;;;;;;;30.48;19.70;;;;;;;2.43;95.74;101208.53;5071560;28;20510;-79
2021/12/11 08:29:47;;;;;;;26.63;18.75;;;;;;;2.50;95.10;101207.88;5052569;28;20036;-79
2021/12/11 08:32:14;;;;;;;29.42;19.98;;;;;;;2.59;95.12;101220.19;5054851;28;20472;-79
2021/12/11 08:34:40;;;;;;;31.30;18.63;;;;;;;2.65;95.53;101217.75;5020725;28;20152;-80
2021/12/11 08:37:08;;;;;;;26.75;16.67;;;;;;;2.69;94.86;101223.91;5037318;28;20044;-79
2021/12/11 08:39:34;;;;;;;24.73;15.52;;;;;;;2.73;95.17;101221.44;5043308;28;20035;-81
2021/12/11 08:42:02;;;;;;;24.25;13.90;;;;;;;2.79;94.60;101223.31;5054430;28;20020;-80
2021/12/11 08:44:34;;;;;;;22.35;14.85;;;;;;;2.84;94.56;101228.59;5036580;28;20392;-79
2021/12/11 08:47:03;;;;;;;25.73;14.95;;;;;;;2.87;94.16;101234.72;5021113;28;20541;-79
2021/12/11 08:49:35;;;;;;;17.83;10.40;;;;;;;2.95;94.81;101237.50;5053637;28;20047;-83
2021/12/11 08:52:14;;;;;;;25.80;10.98;;;;;;;2.99;94.27;101246.22;5054353;28;20400;-82
2021/12/11 08:54:40;;;;;;;16.23;9.20;;;;;;;3.06;94.19;101251.63;5054052;28;21273;-81
2021/12/11 08:57:10;;;;;;;20.05;10.38;;;;;;;3.12;94.93;101256.06;5020896;28;20036;-81
2021/12/11 08:59:41;;;;;;;15.30;9.13;;;;;;;3.19;94.51;101263.16;5052131;28;20028;-82
2021/12/11 09:02:16;;;;;;;20.98;11.23;;;;;;;3.26;94.42;101270.25;5037348;28;20114;-82
2021/12/11 09:04:55;;;;;;;19.70;8.88;;;;;;;3.32;94.38;101269.53;5053866;28;20028;-80
2021/12/11 09:07:30;;;;;;;19.40;9.32;;;;;;;3.39;94.84;101274.03;5053796;28;20472;-80
2021/12/11 09:10:05;;;;;;;23.55;9.38;;;;;;;3.46;94.44;101281.09;5053476;28;20031;-81
2021/12/11 09:12:35;;;;;;;17.77;9.23;;;;;;;3.54;94.51;101291.66;5051972;28;20031;-81
2021/12/11 09:15:19;;;;;;;19.65;8.00;;;;;;;3.61;94.64;101293.53;5052601;28;20047;-81
2021/12/11 09:17:51;;;;;;;12.95;8.18;;;;;;;3.72;94.41;101301.59;5053682;28;20032;-82
2021/12/11 09:20:24;;;;;;;20.30;8.60;;;;;;;3.81;94.34;101306.97;5062111;28;20119;-82
2021/12/11 09:23:06;;;;;;;19.17;11.10;;;;;;;3.88;93.57;101312.28;5067946;28;20028;-84
2021/12/11 09:25:42;;;;;;;24.50;13.55;;;;;;;3.95;93.32;101315.09;5068149;28;20350;-84
2021/12/11 09:28:16;;;;;;;22.00;12.20;;;;;;;4.02;92.76;101331.66;5069921;28;20023;-83
2021/12/11 09:30:54;;;;;;;24.08;14.10;;;;;;;4.05;92.42;101333.44;5042900;28;20134;-82
2021/12/11 09:33:26;;;;;;;28.73;15.93;;;;;;;4.07;91.79;101343.00;5070540;28;20115;-82
2021/12/11 09:36:15;;;;;;;27.38;15.80;;;;;;;4.10;91.87;101339.63;5070465;28;20422;-84
2021/12/11 09:38:45;;;;;;;28.27;15.20;;;;;;;4.12;92.12;101344.00;5069571;28;20063;-83
2021/12/11 09:41:20;;;;;;;27.10;16.17;;;;;;;4.15;92.08;101351.84;5070459;28;20044;-85
2021/12/11 09:43:49;;;;;;;27.27;19.42;;;;;;;4.16;91.97;101356.19;5069345;28;20135;-81
2021/12/11 09:46:19;;;;;;;28.02;18.08;;;;;;;4.19;91.26;101354.50;5054196;28;20048;-80
2021/12/11 09:48:47;;;;;;;24.70;18.77;;;;;;;4.24;91.65;101373.63;5070661;28;20037;-81
2021/12/11 09:51:18;;;;;;;38.53;22.95;;;;;;;4.23;91.19;101380.56;5070427;28;20020;-80
2021/12/11 09:53:50;;;;;;;36.22;20.33;;;;;;;4.21;90.43;101383.94;5051826;28;20037;-82
2021/12/11 09:56:35;;;;;;;32.17;18.98;;;;;;;4.16;90.71;101389.91;5052972;28;20044;-82
2021/12/11 09:59:05;;;;;;;35.88;21.90;;;;;;;4.14;90.46;101393.31;5052002;28;20027;-83
2021/12/11 10:01:35;;;;;;;34.28;19.95;;;;;;;4.17;90.29;101398.56;5053289;28;20035;-79
2021/12/11 10:04:13;;;;;;;36.03;21.95;;;;;;;4.16;89.93;101400.28;5053117;28;20024;-83
2021/12/11 10:06:52;;;;;;;35.63;21.50;;;;;;;4.20;90.01;101400.38;5053711;28;20036;-84
2021/12/11 10:09:23;;;;;;;31.92;22.30;;;;;;;4.29;90.20;101403.16;5069490;28;20039;-82
2021/12/11 10:11:53;;;;;;;33.53;22.77;;;;;;;4.38;89.88;101411.16;5053267;28;20032;-82
2021/12/11 10:14:23;;;;;;;34.08;22.48;;;;;;;4.39;89.57;101410.31;5052554;28;20100;-83
2021/12/11 10:16:52;;;;;;;39.33;22.25;;;;;;;4.55;89.76;101410.66;5053186;28;20366;-84
2021/12/11 10:19:19;;;;;;;31.17;23.27;;;;;;;4.62;89.34;101417.75;5052968;28;20062;-83
2021/12/11 10:21:52;;;;;;;34.53;24.23;;;;;;;4.71;89.33;101432.66;5053126;28;20032;-83
2021/12/11 10:24:23;;;;;;;39.00;24.52;;;;;;;4.74;89.26;101438.78;5052090;28;20032;-84
2021/12/11 10:26:50;;;;;;;36.88;25.05;;;;;;;4.83;89.82;101441.56;5041967;28;20040;-84
2021/12/11 10:29:16;;;;;;;31.20;24.00;;;;;;;4.93;88.72;101447.84;5052256;28;20024;-83
2021/12/11 10:31:47;;;;;;;28.48;21.83;;;;;;;4.89;87.20;101445.16;5020139;28;20081;-82
2021/12/11 10:34:17;;;;;;;29.13;20.90;;;;;;;4.85;87.05;101445.06;5053594;28;20159;-84
2021/12/11 10:36:49;;;;;;;31.40;20.85;;;;;;;4.74;86.71;101444.00;5055038;28;20063;-83
2021/12/11 10:39:15;;;;;;;30.17;21.67;;;;;;;4.67;87.07;101455.94;5055512;28;20182;-82
2021/12/11 10:41:42;;;;;;;28.08;21.15;;;;;;;4.59;87.45;101460.09;5073265;28;20028;-83
2021/12/11 10:44:15;;;;;;;43.60;23.02;;;;;;;4.57;88.10;101458.28;5055704;28;20028;-82
2021/12/11 10:46:48;;;;;;;32.13;22.65;;;;;;;4.57;87.96;101451.41;5071340;28;20029;-83
2021/12/11 10:49:17;;;;;;;36.30;25.23;;;;;;;4.62;88.08;101456.69;5060622;28;20058;-82
2021/12/11 10:51:56;;;;;;;33.20;23.27;;;;;;;4.83;88.02;101451.97;5052605;28;20029;-84
2021/12/11 10:54:22;;;;;;;37.25;25.00;;;;;;;5.14;87.57;101456.94;5065364;28;20029;-83
2021/12/11 10:56:49;;;;;;;31.83;24.05;;;;;;;5.82;86.75;101461.69;5043972;28;20051;-84
2021/12/11 10:59:37;;;;;;;35.95;26.77;;;;;;;6.18;85.71;101470.16;5038673;28;20056;-83
2021/12/11 11:02:32;;;;;;;39.22;26.75;;;;;;;6.30;84.19;101479.88;5056644;28;20123;-84
2021/12/11 11:05:10;;;;;;;38.55;25.27;;;;;;;6.52;84.95;101483.69;5033142;28;20374;-82
2021/12/11 11:07:36;;;;;;;43.17;27.67;;;;;;;6.91;82.95;101491.22;5052720;28;20480;-82
2021/12/11 11:10:10;;;;;;;43.22;28.40;;;;;;;8.75;83.08;101485.22;5055492;28;20017;-83
2021/12/11 11:12:36;;;;;;;40.47;28.08;;;;;;;10.11;75.48;101490.03;5055533;28;20459;-83
2021/12/11 11:15:03;;;;;;;31.52;23.33;;;;;;;10.69;73.01;101497.88;5054881;28;20064;-84
2021/12/11 11:17:31;;;;;;;40.75;29.45;;;;;;;13.20;73.35;101496.19;5056277;28;20438;-83
2021/12/11 11:19:57;;;;;;;38.00;24.65;;;;;;;14.74;63.18;101499.19;5054013;28;20448;-82
2021/12/11 11:22:27;;;;;;;28.77;21.48;;;;;;;16.09;56.53;101507.78;5037284;28;20488;-85
2021/12/11 11:25:18;;;;;;;23.15;18.58;;;;;;;15.86;55.14;101517.13;5051126;28;20036;-86
2021/12/11 11:27:46;;;;;;;28.88;18.73;;;;;;;14.37;55.61;101518.25;5073252;28;20017;-85
2021/12/11 11:30:18;;;;;;;24.42;17.17;;;;;;;12.78;58.95;101528.22;5039302;28;20481;-84
2021/12/11 11:32:44;;;;;;;28.13;17.75;;;;;;;11.47;61.91;101534.38;5055778;28;20024;-85
2021/12/11 11:35:15;;;;;;;22.48;16.42;;;;;;;10.48;65.26;101539.84;5056178;28;20028;-84
2021/12/11 11:37:41;;;;;;;25.45;17.73;;;;;;;9.77;67.18;101537.97;5059270;28;20048;-82
2021/12/11 11:40:13;;;;;;;21.88;17.58;;;;;;;9.36;69.16;101541.31;5039286;28;20106;-84
2021/12/11 11:42:39;;;;;;;25.60;17.70;;;;;;;10.90;67.72;101535.41;5050864;28;20027;-85
2021/12/11 11:45:08;;;;;;;23.05;17.48;;;;;;;13.60;64.69;101537.84;5053936;28;20115;-84
2021/12/11 11:47:34;;;;;;;21.08;15.60;;;;;;;16.24;59.15;101538.28;5055224;28;20036;-83
2021/12/11 11:50:02;;;;;;;20.48;16.83;;;;;;;18.34;53.42;101538.50;5055295;28;20040;-84
2021/12/11 11:52:30;;;;;;;20.77;13.63;;;;;;;19.91;46.42;101552.38;5056220;28;20036;-86
2021/12/11 11:55:00;;;;;;;16.83;12.63;;;;;;;21.15;47.04;101553.44;5040457;28;20031;-85
2021/12/11 11:57:33;;;;;;;21.20;12.30;;;;;;;20.36;43.91;101564.78;5072477;28;20032;-84
2021/12/11 12:00:01;;;;;;;15.98;11.63;;;;;;;18.69;46.67;101573.63;5050997;28;20036;-83
2021/12/11 12:02:30;;;;;;;16.40;11.63;;;;;;;16.93;48.48;101559.50;5069383;28;20037;-84
2021/12/11 12:04:59;;;;;;;16.45;11.13;;;;;;;15.46;51.15;101568.16;5052411;28;20059;-84
2021/12/11 12:07:28;;;;;;;13.52;10.35;;;;;;;14.26;53.15;101568.50;5047869;28;20013;-83
2021/12/11 12:10:04;;;;;;;17.70;11.98;;;;;;;14.27;57.08;101564.13;5054947;28;20541;-83
2021/12/11 12:12:30;;;;;;;17.88;10.13;;;;;;;14.64;56.03;101576.72;5053587;28;20020;-82
2021/12/11 12:14:57;;;;;;;12.40;8.75;;;;;;;15.72;52.27;101572.91;5051978;28;20154;-82
2021/12/11 12:17:25;;;;;;;14.23;9.73;;;;;;;16.73;51.27;101574.06;5053079;28;20608;-82
2021/12/11 12:19:53;;;;;;;10.43;7.25;;;;;;;16.60;51.22;101572.66;5046979;28;20035;-83
2021/12/11 12:22:20;;;;;;;9.63;5.97;;;;;;;15.43;51.32;101576.16;5054811;28;20040;-83
2021/12/11 12:24:49;;;;;;;12.18;6.82;;;;;;;14.53;55.22;101583.03;5051505;28;20485;-83
2021/12/11 12:27:20;;;;;;;9.63;6.45;;;;;;;14.41;54.55;101585.88;5052783;28;20130;-84
2021/12/11 12:29:46;;;;;;;9.88;5.28;;;;;;;14.34;54.51;101593.00;5051533;28;20499;-82
2021/12/11 12:32:26;;;;;;;6.25;4.97;;;;;;;13.73;57.82;101596.50;5054949;28;20033;-82
2021/12/11 12:34:55;;;;;;;12.93;5.73;;;;;;;13.54;56.95;101599.34;5052429;28;20054;-83
2021/12/11 12:37:21;;;;;;;8.55;4.57;;;;;;;13.22;57.16;101600.56;5052588;28;20040;-82
2021/12/11 12:39:50;;;;;;;9.15;5.15;;;;;;;12.54;57.47;101593.31;5048194;28;20028;-82
2021/12/11 12:42:30;;;;;;;14.50;5.72;;;;;;;11.90;59.72;101594.56;5054998;28;20060;-82
2021/12/11 12:45:01;;;;;;;;;;;;;;;11.87;62.73;101602.47;5046630;28;20032;-82
2021/12/11 12:47:35;;;;;;;12.98;5.15;;;;;;;11.41;61.40;101596.50;5055728;28;19915;-82
2021/12/11 12:50:05;;;;;;;16.55;5.15;;;;;;;11.29;61.14;101591.28;5068379;28;20028;-82
2021/12/11 12:52:34;;;;;;;;;;;;;;;11.59;63.17;101605.19;5044728;28;20029;-81
2021/12/11 12:55:08;;;;;;;11.32;4.57;;;;;;;12.83;58.97;101598.31;5050151;28;19939;-81
2021/12/11 12:57:38;;;;;;;15.15;4.85;;;;;;;14.80;53.84;101601.97;5045310;28;20033;-85
2021/12/11 13:00:22;;;;;;;;;;;;;;;15.70;60.10;101600.25;5049275;28;20143;-83
2021/12/11 13:02:51;;;;;;;18.48;4.38;;;;;;;14.55;52.57;101606.72;5048794;28;19947;-83
2021/12/11 13:05:32;;;;;;;11.05;4.88;;;;;;;13.61;57.58;101606.28;5047004;28;20131;-83
2021/12/11 13:08:03;;;;;;;15.65;4.35;;;;;;;12.47;57.35;101621.38;5065258;28;20020;-82
2021/12/11 13:10:38;;;;;;;14.35;3.97;;;;;;;11.67;60.26;101623.56;5066270;28;20021;-82
2021/12/11 13:13:08;;;;;;;9.52;3.78;;;;;;;10.81;61.45;101624.59;5071318;28;20016;-83
2021/12/11 13:15:44;;;;;;;8.23;4.10;;;;;;;10.17;63.29;101626.22;5074312;28;20508;-80
2021/12/11 13:18:16;;;;;;;15.20;4.50;;;;;;;9.42;65.40;101632.88;5051821;28;20024;-80
2021/12/11 13:20:50;;;;;;;10.45;4.22;;;;;;;8.92;67.29;101641.25;5051373;28;20028;-81
2021/12/11 13:23:16;;;;;;;12.45;4.75;;;;;;;8.45;68.34;101640.00;5053460;28;20025;-83
2021/12/11 13:25:48;;;;;;;14.10;4.40;;;;;;;8.17;69.85;101644.88;5036937;28;20036;-82
2021/12/11 13:28:16;;;;;;;16.58;4.93;;;;;;;7.91;70.86;101650.66;5070169;28;20052;-83
2021/12/11 13:30:51;;;;;;;12.43;4.63;;;;;;;7.73;71.70;101650.44;5071101;28;20468;-83
2021/12/11 13:33:20;;;;;;;11.15;5.03;;;;;;;7.56;72.95;101651.09;5049063;28;20033;-81
2021/12/11 13:35:46;;;;;;;10.18;4.75;;;;;;;7.53;73.14;101653.69;5043792;28;20036;-81
2021/12/11 13:38:15;;;;;;;11.68;3.97;;;;;;;7.51;73.02;101657.97;5046997;28;20082;-80
2021/12/11 13:40:48;;;;;;;13.45;5.07;;;;;;;7.45;74.41;101660.50;5046580;28;20070;-83
2021/12/11 13:43:14;;;;;;;18.23;5.18;;;;;;;7.39;74.19;101666.50;5067788;28;20036;-81
2021/12/11 13:45:48;;;;;;;11.15;4.35;;;;;;;7.34;74.63;101673.41;5045890;28;20028;-80
2021/12/11 13:48:15;;;;;;;18.58;5.10;;;;;;;7.28;74.75;101666.38;5047522;28;20040;-81
2021/12/11 13:51:02;;;;;;;9.77;4.18;;;;;;;7.29;74.87;101664.63;5050551;28;20028;-80
2021/12/11 13:53:27;;;;;;;12.88;4.97;;;;;;;7.25;75.65;101665.44;5062776;28;20033;-81
2021/12/11 13:55:57;;;;;;;13.15;4.95;;;;;;;7.25;75.87;101668.91;5066241;28;20036;-81
2021/12/11 13:58:22;;;;;;;13.45;4.57;;;;;;;7.31;76.66;101668.13;5055221;28;20036;-80
2021/12/11 14:00:59;;;;;;;13.68;5.50;;;;;;;7.36;76.64;101668.22;5052468;28;20032;-80
2021/12/11 14:03:27;;;;;;;16.35;5.50;;;;;;;7.39;75.70;101674.34;5048319;28;20034;-80
2021/12/11 14:05:58;;;;;;;15.20;5.78;;;;;;;7.36;76.07;101673.44;5050859;28;20067;-81
2021/12/11 14:08:24;;;;;;;17.92;6.80;;;;;;;7.32;76.52;101674.22;5039212;28;20016;-81
2021/12/11 14:10:50;;;;;;;14.15;6.18;;;;;;;7.28;76.70;101689.84;5057944;28;20473;-80
2021/12/11 14:13:18;;;;;;;16.20;5.47;;;;;;;7.21;76.42;101687.09;5035228;28;20033;-81
2021/12/11 14:15:46;;;;;;;14.73;5.07;;;;;;;7.16;77.35;101691.38;5060974;28;20028;-81
2021/12/11 14:18:13;;;;;;;14.88;5.03;;;;;;;7.11;77.21;101692.16;5056301;28;20051;-81
2021/12/11 14:20:40;;;;;;;20.85;5.43;;;;;;;7.04;77.04;101699.84;5039033;28;20055;-81
2021/12/11 14:23:12;;;;;;;12.35;4.82;;;;;;;6.92;77.55;101704.03;5051786;28;20055;-81
2021/12/11 14:25:38;;;;;;;22.65;4.95;;;;;;;6.82;77.41;101709.91;5053791;28;20045;-80
2021/12/11 14:28:10;;;;;;;17.52;4.55;;;;;;;6.71;77.19;101706.22;5055564;28;20458;-81
2021/12/11 14:30:40;;;;;;;15.18;5.07;;;;;;;6.62;77.36;101706.94;5053881;28;20123;-80
2021/12/11 14:33:05;;;;;;;13.75;4.57;;;;;;;6.54;77.87;101717.22;5054574;28;21341;-80
2021/12/11 14:35:34;;;;;;;17.33;5.00;;;;;;;6.46;77.75;101716.19;5021072;28;20035;-80
2021/12/11 14:38:06;;;;;;;9.52;4.82;;;;;;;6.38;78.46;101718.66;5052157;28;20408;-80
2021/12/11 14:40:34;;;;;;;17.30;5.80;;;;;;;6.35;78.67;101722.91;5056912;28;20028;-80
2021/12/11 14:43:00;;;;;;;24.08;6.00;;;;;;;6.27;79.06;101730.56;5039167;28;20110;-81
2021/12/11 14:45:31;;;;;;;13.10;5.50;;;;;;;6.17;78.59;101732.09;5038187;28;20071;-81
2021/12/11 14:47:57;;;;;;;14.63;5.07;;;;;;;6.11;79.15;101736.31;5067178;28;20016;-80
2021/12/11 14:50:31;;;;;;;14.10;6.15;;;;;;;6.00;78.85;101736.09;5021817;28;20036;-81
2021/12/11 14:52:59;;;;;;;11.63;5.75;;;;;;;5.86;79.69;101743.53;5059464;28;20573;-80
2021/12/11 14:55:39;;;;;;;13.35;6.22;;;;;;;5.80;79.17;101749.47;5053989;28;20029;-81
2021/12/11 14:58:05;;;;;;;13.38;5.70;;;;;;;5.67;79.62;101752.66;5047957;28;20477;-78
2021/12/11 15:00:36;;;;;;;15.90;6.35;;;;;;;5.55;79.59;101748.94;5049233;28;20032;-76
2021/12/11 15:03:03;;;;;;;19.15;6.03;;;;;;;5.45;79.86;101754.75;5057379;28;20361;-77
2021/12/11 15:05:40;;;;;;;17.83;5.63;;;;;;;5.37;80.06;101764.09;5056199;28;20046;-77
2021/12/11 15:08:12;;;;;;;11.25;5.60;;;;;;;5.24;80.18;101759.44;5055080;28;20068;-77
2021/12/11 15:10:39;;;;;;;16.42;6.35;;;;;;;5.14;79.89;101759.22;5055573;28;20023;-74
2021/12/11 15:13:05;;;;;;;8.55;5.40;;;;;;;5.05;80.75;101761.56;5035273;28;20473;-74
2021/12/11 15:15:32;;;;;;;7.80;5.28;;;;;;;4.95;80.65;101760.44;5026162;28;20039;-74
2021/12/11 15:17:58;;;;;;;11.05;5.90;;;;;;;4.85;80.32;101776.63;5055345;28;20036;-73
2021/12/11 15:20:31;;;;;;;10.90;5.28;;;;;;;4.77;80.69;101775.53;5054754;28;20123;-71
2021/12/11 15:22:57;;;;;;;13.68;5.82;;;;;;;4.65;80.43;101781.28;5053764;28;20033;-71
2021/12/11 15:25:23;;;;;;;12.27;5.78;;;;;;;4.53;80.78;101796.53;5038750;28;20024;-71
2021/12/11 15:27:51;;;;;;;22.00;6.93;;;;;;;4.50;80.88;101797.31;5052424;28;20120;-71
2021/12/11 15:30:22;;;;;;;16.20;6.13;;;;;;;4.42;81.18;101797.06;5053957;28;20097;-72
2021/12/11 15:32:49;;;;;;;14.50;6.13;;;;;;;4.31;81.17;101796.78;5072851;28;20115;-70
2021/12/11 15:35:22;;;;;;;163.25;18.92;;;;;;;4.27;81.66;101802.69;5055069;28;20036;-71
2021/12/11 15:37:48;;;;;;;8.98;4.55;;;;;;;4.18;82.03;101799.84;5055844;28;20050;-72
2021/12/11 15:40:19;;;;;;;17.23;6.65;;;;;;;4.11;81.42;101819.53;5036395;28;20040;-72
2021/12/11 15:42:47;;;;;;;13.02;5.75;;;;;;;4.00;81.49;101815.72;5070465;28;20531;-72
2021/12/11 15:45:15;;;;;;;13.63;5.63;;;;;;;3.95;82.41;101806.91;5069712;28;20035;-71
2021/12/11 15:47:43;;;;;;;22.10;5.38;;;;;;;3.87;82.04;101811.00;5055672;28;20082;-71
2021/12/11 15:50:14;;;;;;;16.00;6.45;;;;;;;3.81;82.83;101814.28;5062283;28;20040;-71
2021/12/11 15:52:40;;;;;;;11.57;5.70;;;;;;;3.74;82.67;101801.94;5045273;28;20073;-71
2021/12/11 15:55:08;;;;;;;10.55;5.97;;;;;;;3.67;82.75;101813.81;5048912;28;20028;-71
2021/12/11 15:57:33;;;;;;;16.40;5.85;;;;;;;3.59;82.92;101813.59;5054549;28;20086;-71
2021/12/11 15:59:59;;;;;;;22.42;6.45;;;;;;;3.50;82.56;101815.84;5036675;28;20032;-71
2021/12/11 16:02:26;;;;;;;17.50;6.80;;;;;;;3.42;83.52;101810.44;5039160;28;20155;-69
2021/12/11 16:04:53;;;;;;;17.92;7.25;;;;;;;3.35;82.92;101810.16;5021460;28;20036;-72
2021/12/11 16:07:21;;;;;;;20.77;8.07;;;;;;;3.30;84.27;101817.78;5039158;28;20031;-72
2021/12/11 16:09:47;;;;;;;11.60;7.45;;;;;;;3.25;84.54;101828.00;5036386;28;20377;-72
2021/12/11 16:12:17;;;;;;;17.02;7.30;;;;;;;3.23;85.27;101828.78;5037378;28;20045;-71
2021/12/11 16:14:43;;;;;;;;;;;;;;;3.25;83.74;101828.00;5052953;28;20083;-71
2021/12/11 16:17:09;;;;;;;22.13;7.35;;;;;;;3.12;84.70;101831.88;5054890;28;19912;-72
2021/12/11 16:19:38;;;;;;;14.55;7.63;;;;;;;3.08;84.56;101836.91;5054236;28;20040;-71